Aérodrome :
LOGIN :

S'inscrire | Disclaimer

   EN    FR    IT 

 










Légende :    VFR   VFR Marginal   IFR   IFR Intensif   IFR Très Intensif
Visi : 
Plafond : 
>= 8 km
>= 3000ft
5 à 8 km
1000 à 3000 ft
1500m à 5 km
500 à 1000 ft
800 à 1500m
200 à 500 ft
< 800m
< 200 ft
Symboles :   Orages  Brouillard  Fortes neiges  Fortes précipitations  Vent > 20 kt
SIGMETs :   Divers  Orages  Givrage  Turbulence  Onde Orograph.  Cendres Volcan.







- Altitude de l'aérodrome : 821 ft
- Code IATA : LYS
- Voir les cartes d'approche


LFLL - Lyon St Exupéry / Satolas

DERNIER METAR :
  • 232130Z 15001KT 9999 FEW027 BKN035 08/03 Q1029 NOSIG

METARs EXPIRÉS :
  • 232100Z 12003KT 9999 SCT027 BKN050 09/03 Q1029 NOSIG
  • 232030Z 00000KT 9999 FEW032 BKN040 OVC055 09/05 Q1028 NOSIG
  • 232000Z 17002KT 9999 FEW042 BKN047 OVC060 10/03 Q1029 NOSIG
  • 231930Z 16003KT 9999 SCT045 OVC060 10/03 Q1028 NOSIG
  • 231900Z 17003KT 9999 FEW045 BKN049 OVC065 10/03 Q1028 NOSIG

TAF TAF LFLL
Valide du 23 à 18h jusqu'au 25 à 00h UTC


231700Z 2318/2424 VRB02KT CAVOK
PROB30
TEMPO 2403/2408 0600 BCFG
BECMG 2410/2412 18012KT
BECMG 2412/2414 18015G25KT
PROB40
TEMPO 2416/2420 18020G35KT
Pas de NOTAMs connus pour ce terrain.



MET'MAP, la Météo Aéronautique d'un coup d'oeil ! - Copyright ORBIFLY Décembre 2007 - Disclaimer

ORBIFLY MET'MAP TEAM :

Programmation & Développement : Alexandra Zaïnal
Conception & Développement : Baudouin d'Aumeries
Co-Programmation & Développement : Marc-Olivier Méhu
Soutien technique & logistique : Manuel Goepfert

Contact : metmap@orbifly.com




SOURCES & CREDITS :

   NOAA